All
Rylstone Airpark Airport (Rylstone, NSW) YRYL Weather
There is no TAF data available at YRYL. Showing TAF data for YMDG (27 mi W).
DGE Terminal Area Forecast (no data for YRYL)
| Date | Time (AEST) | Flight Rules | Wind Dir. | Speed | Type | Height AGL (ft) | Visibility | Remarks | ||||||
|---|---|---|---|---|---|---|---|---|---|---|---|---|---|---|
There is no METAR data available at YRYL. Showing METAR data for YMDG (27 mi W).
Recent DGE METAR history (no data for YRYL)
| Date | Time (AEST) | Flight Rules | Wind Dir. | Speed | Type | Height AGL (ft) | Visibility | Temp (°C) | Temp (°F) | Dew Point (°C) | Dew Point (°F) | Rel. Humid. | Pressure | Density Altitude | Remarks |
|---|---|---|---|---|---|---|---|---|---|---|---|---|---|---|---|
| 06-May | 02:00AM | VFR | Calm | 10000 meters | 7° | 44° | 6° | 42° | 93% | 1021 mb | 592 ft | ||||
| 06-May | 01:00AM | VFR | 70° | 2 kt | 10000 meters | 7° | 44° | 6° | 42° | 93% | 1021 mb | 592 ft | |||
| 06-May | 12:00AM | VFR | Calm | 10000 meters | 8° | 46° | 5° | 41° | 81% | 1021 mb | 712 ft | ||||
| 05-May | 11:00PM | VFR | 170° | 5 kt | 10000 meters | 11° | 51° | 6° | 42° | 71% | 1021 mb | 1,072 ft | |||
| 05-May | 10:00PM | VFR | 160° | 6 kt | 10000 meters | 12° | 53° | 6° | 42° | 67% | 1022 mb | 1,163 ft | |||
| 05-May | 09:00PM | VFR | 170° | 7 kt | 10000 meters | 13° | 55° | 7° | 44° | 67% | 1021 mb | 1,312 ft | |||
| 05-May | 08:00PM | VFR | 160° | 5 kt | 10000 meters | 13° | 55° | 7° | 44° | 67% | 1021 mb | 1,312 ft | |||
| 05-May | 07:00PM | VFR | 120° | 2 kt | 10000 meters | 15° | 59° | 7° | 44° | 59% | 1021 mb | 1,552 ft | |||
| 05-May | 06:00PM | VFR | 240° | 8 kt | 10000 meters | 15° | 59° | 7° | 44° | 59% | 1020 mb | 1,582 ft | |||
| 05-May | 05:00PM | VFR | 210° | 5 kt | 10000 meters | 18° | 64° | 5° | 41° | 42% | 1019 mb | 1,972 ft | |||
| 05-May | 04:00PM | VFR | 240° | 7 kt | 10000 meters | 20° | 68° | 6° | 42° | 40% | 1018 mb | 2,241 ft | |||
| 05-May | 03:00PM | VFR | 250° | 10 kt | 10000 meters | 20° | 68° | 5° | 41° | 37% | 1018 mb | 2,241 ft | |||
| 05-May | 02:00PM | VFR | 190° | 7 kt | 10000 meters | 19° | 66° | 5° | 41° | 40% | 1019 mb | 2,092 ft | |||
| 05-May | 01:00PM | VFR | 190° | 7 kt | 10000 meters | 19° | 66° | 6° | 42° | 43% | 1019 mb | 2,092 ft | |||
| 05-May | 12:00PM | VFR | 190° | 8 kt | 10000 meters | 18° | 64° | 7° | 44° | 49% | 1020 mb | 1,942 ft | |||
| 05-May | 11:00AM | VFR | 200° | 4 kt | 10000 meters | 18° | 64° | 8° | 46° | 52% | 1021 mb | 1,912 ft | |||
| 05-May | 10:00AM | VFR | 190° | 5 kt | 10000 meters | 16° | 60° | 8° | 46° | 59% | 1021 mb | 1,672 ft | |||
| 05-May | 09:00AM | VFR | Calm | 10000 meters | 13° | 55° | 12° | 53° | 94% | 1021 mb | 1,312 ft | ||||
| 05-May | 08:00AM | VFR | 20° | 3 kt | 10000 meters | 9° | 48° | 9° | 48° | 100% | 1021 mb | 832 ft | |||
| 05-May | 07:00AM | VFR | 60° | 4 kt | Few |
100 |
10000 meters | 6° | 42° | 6° | 42° | 100% | 1020 mb | 502 ft | |
| 05-May | 06:00AM | VFR | 50° | 4 kt | 10000 meters | 7° | 44° | 7° | 44° | 100% | 1019 mb | 652 ft | |||
| 05-May | 05:00AM | VFR | 30° | 7 kt | 10000 meters | 8° | 46° | 8° | 46° | 100% | 1019 mb | 772 ft | |||
| 05-May | 04:00AM | VFR | 10° | 5 kt | 10000 meters | 8° | 46° | 8° | 46° | 100% | 1018 mb | 801 ft | |||
| 05-May | 03:00AM | VFR | 50° | 4 kt | 10000 meters | 11° | 51° | 11° | 51° | 100% | 1018 mb | 1,161 ft |
Login
| Your browser is unsupported. upgrade your browser |
